createdAt,value
2017-12-21T00:02:22.512Z,101663.00
2017-12-21T00:04:56.015Z,101656.28
2017-12-21T00:07:29.856Z,101653.75
2017-12-21T00:10:03.447Z,101638.64
2017-12-21T00:12:36.951Z,101646.28
2017-12-21T00:15:12.033Z,101638.63
2017-12-21T00:17:46.273Z,101645.25
2017-12-21T00:20:20.109Z,101647.45
2017-12-21T00:22:53.658Z,101640.22
2017-12-21T00:25:27.305Z,101641.25
2017-12-21T00:28:01.165Z,101640.53
2017-12-21T00:30:34.677Z,101642.42
2017-12-21T00:33:08.553Z,101641.26
2017-12-21T00:35:42.194Z,101638.44
2017-12-21T00:38:15.774Z,101629.96
2017-12-21T00:40:49.330Z,101626.06
2017-12-21T00:43:23.005Z,101621.56
2017-12-21T00:46:05.636Z,101614.46
2017-12-21T00:48:39.074Z,101624.09
2017-12-21T00:51:12.596Z,101624.00
2017-12-21T00:53:46.064Z,101622.22
2017-12-21T00:56:19.667Z,101626.16
2017-12-21T00:58:53.427Z,101626.80
2017-12-21T01:01:27.431Z,101627.00
2017-12-21T01:04:01.151Z,101625.97
2017-12-21T01:06:34.793Z,101625.77
2017-12-21T01:09:08.337Z,101626.19
2017-12-21T01:11:41.967Z,101631.53
2017-12-21T01:14:15.346Z,101632.47
2017-12-21T01:16:49.280Z,101637.28
2017-12-21T01:19:22.940Z,101633.94
2017-12-21T01:21:56.823Z,101635.07
2017-12-21T01:24:31.698Z,101631.41
2017-12-21T01:27:05.192Z,101630.79
2017-12-21T01:29:38.607Z,101633.71
2017-12-21T01:32:12.007Z,101629.84
2017-12-21T01:34:45.592Z,101631.22
2017-12-21T01:37:19.603Z,101643.76
2017-12-21T01:39:52.967Z,101648.91
2017-12-21T01:42:26.523Z,101637.92
2017-12-21T01:44:59.954Z,101629.42
2017-12-21T01:47:33.618Z,101629.22
2017-12-21T01:50:08.343Z,101630.16
2017-12-21T01:52:41.953Z,101631.30
2017-12-21T01:55:15.527Z,101642.42
2017-12-21T01:57:49.482Z,101643.14
2017-12-21T02:00:23.051Z,101637.92
2017-12-21T02:02:56.356Z,101639.67
2017-12-21T02:05:30.028Z,101627.63
2017-12-21T02:08:03.605Z,101632.36
2017-12-21T02:10:37.413Z,101639.36
2017-12-21T02:13:11.247Z,101637.89
2017-12-21T02:15:44.639Z,101635.39
2017-12-21T02:18:18.482Z,101626.58
2017-12-21T02:20:51.973Z,101628.98
2017-12-21T02:23:26.002Z,101625.12
2017-12-21T02:25:59.652Z,101627.33
2017-12-21T02:28:33.315Z,101629.11
2017-12-21T02:31:06.794Z,101627.63
2017-12-21T02:33:41.361Z,101630.05
2017-12-21T02:36:14.759Z,101639.23
2017-12-21T02:38:48.424Z,101641.13
2017-12-21T02:41:22.853Z,101640.51
2017-12-21T02:43:56.619Z,101647.72
2017-12-21T02:46:30.476Z,101648.69
2017-12-21T02:49:03.972Z,101650.97
2017-12-21T02:51:37.415Z,101660.41
2017-12-21T02:54:11.107Z,101663.34
2017-12-21T02:56:44.804Z,101668.36
2017-12-21T02:59:18.518Z,101659.88
2017-12-21T03:01:52.219Z,101659.48
2017-12-21T03:04:25.710Z,101656.00
2017-12-21T03:07:03.415Z,101655.70
2017-12-21T03:09:40.582Z,101658.41
2017-12-21T03:12:14.005Z,101652.44
2017-12-21T03:14:47.734Z,101651.31
2017-12-21T03:17:21.387Z,101654.14
2017-12-21T03:19:54.773Z,101654.45
2017-12-21T03:22:28.192Z,101651.20
2017-12-21T03:25:01.830Z,101653.62
2017-12-21T03:27:35.164Z,101649.63
2017-12-21T03:30:09.146Z,101641.13
2017-12-21T03:32:42.817Z,101635.80
2017-12-21T03:35:16.182Z,101630.13
2017-12-21T03:37:50.138Z,101633.69
2017-12-21T03:40:23.960Z,101637.14
2017-12-21T03:42:57.567Z,101637.89
2017-12-21T03:45:31.916Z,101641.14
2017-12-21T03:48:05.750Z,101636.30
2017-12-21T03:50:40.335Z,101634.52
2017-12-21T03:53:14.070Z,101636.22
2017-12-21T03:55:47.760Z,101632.20
2017-12-21T03:58:21.514Z,101627.20
2017-12-21T04:00:55.174Z,101621.75
2017-12-21T04:03:28.702Z,101621.00
2017-12-21T04:06:02.898Z,101620.19
2017-12-21T04:08:36.716Z,101618.94
2017-12-21T04:11:10.730Z,101615.89
2017-12-21T04:13:44.379Z,101615.45
2017-12-21T04:16:18.088Z,101620.48
2017-12-21T04:18:51.531Z,101620.81
2017-12-21T04:21:24.928Z,101620.59
2017-12-21T04:23:58.910Z,101616.62
2017-12-21T04:26:33.027Z,101624.28
2017-12-21T04:29:06.395Z,101632.02
2017-12-21T04:31:40.135Z,101634.13
2017-12-21T04:34:14.004Z,101636.53
2017-12-21T04:36:47.668Z,101632.26
2017-12-21T04:39:21.472Z,101631.00
2017-12-21T04:41:55.536Z,101621.57
2017-12-21T04:44:29.926Z,101625.66
2017-12-21T04:47:03.465Z,101620.52
2017-12-21T04:49:36.766Z,101630.79
2017-12-21T04:52:10.479Z,101629.11
2017-12-21T04:54:43.786Z,101631.21
2017-12-21T04:57:17.878Z,101629.94
2017-12-21T04:59:51.291Z,101625.25
2017-12-21T05:02:25.266Z,101623.25
2017-12-21T05:04:58.610Z,101610.16
2017-12-21T05:07:32.995Z,101611.31
2017-12-21T05:10:06.970Z,101606.81
2017-12-21T05:15:41.079Z,101604.41
2017-12-21T05:18:14.801Z,101603.56
2017-12-21T05:20:48.538Z,101607.75
2017-12-21T05:23:21.933Z,101607.43
2017-12-21T05:25:55.395Z,101616.34
2017-12-21T05:28:30.301Z,101613.30
2017-12-21T05:31:04.001Z,101617.06
2017-12-21T05:33:45.042Z,101622.19
2017-12-21T05:36:18.398Z,101622.92
2017-12-21T05:38:52.159Z,101616.02
2017-12-21T05:44:29.192Z,101624.62
2017-12-21T05:47:12.471Z,101619.04
2017-12-21T05:49:46.127Z,101617.48
2017-12-21T05:52:19.486Z,101610.87
2017-12-21T05:54:52.931Z,101611.20
2017-12-21T05:57:26.475Z,101599.03
2017-12-21T05:59:59.822Z,101603.34
2017-12-21T06:02:35.865Z,101596.63
2017-12-21T06:05:09.296Z,101600.63
2017-12-21T06:07:43.223Z,101608.15
2017-12-21T06:10:16.804Z,101611.09
2017-12-21T06:12:50.203Z,101601.76
2017-12-21T06:15:23.878Z,101601.47
2017-12-21T06:17:57.898Z,101605.00
2017-12-21T06:20:31.568Z,101610.16
2017-12-21T06:23:04.963Z,101618.85
2017-12-21T06:25:39.230Z,101614.67
2017-12-21T06:28:12.894Z,101610.48
2017-12-21T06:30:46.570Z,101614.24
2017-12-21T06:33:20.386Z,101621.67
2017-12-21T06:35:53.738Z,101613.92
2017-12-21T06:38:27.243Z,101625.02
2017-12-21T06:41:01.211Z,101616.74
2017-12-21T06:43:34.797Z,101618.01
2017-12-21T06:46:08.402Z,101624.30
2017-12-21T06:48:42.038Z,101618.11
2017-12-21T06:51:15.751Z,101621.38
2017-12-21T06:53:49.430Z,101629.56
2017-12-21T06:56:22.808Z,101628.20
2017-12-21T06:58:56.167Z,101632.57
2017-12-21T07:01:29.986Z,101624.92
2017-12-21T07:04:03.367Z,101628.52
2017-12-21T07:06:36.534Z,101627.67
2017-12-21T07:09:10.502Z,101626.93
2017-12-21T07:11:44.219Z,101626.09
2017-12-21T07:14:17.711Z,101629.36
2017-12-21T07:16:51.294Z,101616.26
2017-12-21T07:19:24.962Z,101618.34
2017-12-21T07:21:58.379Z,101621.25
2017-12-21T07:24:32.651Z,101623.45
2017-12-21T07:27:06.066Z,101613.53
2017-12-21T07:29:40.730Z,101612.98
2017-12-21T07:32:15.372Z,101612.05
2017-12-21T07:34:48.778Z,101616.45
2017-12-21T07:37:22.528Z,101622.42
2017-12-21T07:39:55.983Z,101618.02
2017-12-21T07:42:30.074Z,101620.22
2017-12-21T07:45:06.562Z,101619.18
2017-12-21T07:47:40.302Z,101627.97
2017-12-21T07:50:13.942Z,101631.77
2017-12-21T07:52:47.114Z,101632.38
2017-12-21T07:55:20.859Z,101627.68
2017-12-21T07:57:54.276Z,101634.17
2017-12-21T08:00:27.980Z,101640.03
2017-12-21T08:03:01.181Z,101644.02
2017-12-21T08:05:34.913Z,101645.29
2017-12-21T08:08:08.258Z,101648.63
2017-12-21T08:10:42.230Z,101643.37
2017-12-21T08:13:15.706Z,101650.09
2017-12-21T08:15:49.838Z,101646.11
2017-12-21T08:18:23.187Z,101654.08
2017-12-21T08:20:56.614Z,101656.48
2017-12-21T08:23:30.712Z,101650.73
2017-12-21T08:26:04.431Z,101650.84
2017-12-21T08:28:37.850Z,101650.94
2017-12-21T08:31:14.331Z,101656.91
2017-12-21T08:33:48.635Z,101654.92
2017-12-21T08:36:22.250Z,101655.54
2017-12-21T08:38:55.879Z,101662.55
2017-12-21T08:41:33.518Z,101655.86
2017-12-21T08:44:06.919Z,101656.58
2017-12-21T08:46:40.695Z,101654.50
2017-12-21T08:49:14.368Z,101655.73
2017-12-21T08:51:47.793Z,101655.77
2017-12-21T08:54:21.162Z,101657.33
2017-12-21T08:56:54.714Z,101653.14
2017-12-21T08:59:29.166Z,101650.61
2017-12-21T09:02:02.695Z,101654.92
2017-12-21T09:04:36.855Z,101656.39
2017-12-21T09:07:10.248Z,101657.94
2017-12-21T09:09:44.099Z,101649.48
2017-12-21T09:12:17.511Z,101654.08
2017-12-21T09:14:51.247Z,101652.20
2017-12-21T09:17:24.811Z,101655.64
2017-12-21T09:19:58.799Z,101649.25
2017-12-21T09:22:32.192Z,101641.92
2017-12-21T09:25:05.853Z,101641.17
2017-12-21T09:27:39.716Z,101640.03
2017-12-21T09:30:15.560Z,101643.48
2017-12-21T09:32:48.782Z,101643.16
2017-12-21T09:35:22.535Z,101647.89
2017-12-21T09:37:55.947Z,101641.82
2017-12-21T09:40:30.359Z,101639.29
2017-12-21T09:43:03.813Z,101632.38
2017-12-21T09:45:37.823Z,101632.91
2017-12-21T09:48:14.731Z,101639.29
2017-12-21T09:50:48.475Z,101634.36
2017-12-21T09:53:21.867Z,101634.27
2017-12-21T09:55:55.292Z,101640.14
2017-12-21T09:58:29.507Z,101641.92
2017-12-21T10:01:03.155Z,101642.34
2017-12-21T10:03:36.604Z,101645.69
2017-12-21T10:06:10.238Z,101644.64
2017-12-21T10:08:44.118Z,101647.56
2017-12-21T10:11:17.623Z,101644.13
2017-12-21T10:13:51.714Z,101637.51
2017-12-21T10:16:26.800Z,101642.11
2017-12-21T10:19:00.279Z,101634.59
2017-12-21T10:21:34.058Z,101627.35
2017-12-21T10:24:07.675Z,101630.08
2017-12-21T10:26:47.831Z,101635.20
2017-12-21T10:29:22.027Z,101639.20
2017-12-21T10:31:55.521Z,101642.53
2017-12-21T10:34:30.734Z,101636.47
2017-12-21T10:37:02.575Z,101637.61
2017-12-21T10:39:36.007Z,101636.14
2017-12-21T10:42:09.702Z,101633.52
2017-12-21T10:44:43.102Z,101627.45
2017-12-21T10:47:15.848Z,101628.16
2017-12-21T10:49:49.666Z,101619.47
2017-12-21T10:52:23.355Z,101622.09
2017-12-21T10:54:56.836Z,101612.23
2017-12-21T10:57:29.045Z,101618.52
2017-12-21T11:00:00.663Z,101616.13
2017-12-21T11:02:33.939Z,101617.78
2017-12-21T11:05:07.516Z,101617.16
2017-12-21T11:07:40.827Z,101616.13
2017-12-21T11:10:15.007Z,101617.06
2017-12-21T11:12:49.438Z,101615.19
2017-12-21T11:15:21.427Z,101614.34
2017-12-21T11:17:55.152Z,101607.10
2017-12-21T11:20:26.863Z,101607.95
2017-12-21T11:23:01.373Z,101593.90
2017-12-21T11:25:34.047Z,101600.91
2017-12-21T11:28:07.479Z,101589.58
2017-12-21T11:30:41.885Z,101584.36
2017-12-21T11:33:15.676Z,101581.54
2017-12-21T11:35:48.114Z,101578.58
2017-12-21T11:38:21.836Z,101576.89
2017-12-21T11:40:55.223Z,101569.66
2017-12-21T11:43:29.556Z,101571.97
2017-12-21T11:46:03.247Z,101573.33
2017-12-21T11:48:38.192Z,101573.84
2017-12-21T11:51:11.834Z,101572.28
2017-12-21T11:53:45.528Z,101569.66
2017-12-21T11:56:19.196Z,101566.41
2017-12-21T11:58:52.145Z,101569.66
2017-12-21T12:01:25.816Z,101568.81
2017-12-21T12:03:58.652Z,101566.64
2017-12-21T12:06:30.592Z,101574.81
2017-12-21T12:09:04.315Z,101566.60
2017-12-21T12:11:36.494Z,101564.29
2017-12-21T12:14:09.983Z,101558.94
2017-12-21T12:16:43.490Z,101551.50
2017-12-21T12:19:16.303Z,101557.70
2017-12-21T12:21:48.763Z,101549.53
2017-12-21T12:24:21.128Z,101548.50
2017-12-21T12:26:52.880Z,101553.81
2017-12-21T12:29:25.775Z,101545.12
2017-12-21T12:31:58.849Z,101552.86
2017-12-21T12:34:30.752Z,101548.03
2017-12-21T12:37:03.933Z,101548.70
2017-12-21T12:39:35.969Z,101541.97
2017-12-21T12:42:08.874Z,101540.61
2017-12-21T12:44:40.762Z,101546.58
2017-12-21T12:47:13.600Z,101545.21
2017-12-21T12:49:45.268Z,101542.06
2017-12-21T12:52:16.772Z,101541.11
2017-12-21T12:54:49.311Z,101533.97
2017-12-21T12:57:21.347Z,101537.36
2017-12-21T12:59:53.121Z,101537.12
2017-12-21T13:02:24.981Z,101537.02
2017-12-21T13:04:57.746Z,101533.02
2017-12-21T13:07:32.977Z,101532.23
2017-12-21T13:10:05.054Z,101522.35
2017-12-21T13:12:36.712Z,101521.33
2017-12-21T13:15:08.691Z,101525.69
2017-12-21T13:17:42.126Z,101526.35
2017-12-21T13:20:14.762Z,101524.23
2017-12-21T13:22:47.978Z,101524.84
2017-12-21T13:25:19.914Z,101528.64
2017-12-21T13:27:52.579Z,101525.27
2017-12-21T13:30:25.619Z,101519.06
2017-12-21T13:32:59.379Z,101518.55
2017-12-21T13:35:31.981Z,101523.16
2017-12-21T13:38:06.301Z,101517.70
2017-12-21T13:40:39.414Z,101517.94
2017-12-21T13:43:11.272Z,101515.72
2017-12-21T13:45:46.030Z,101512.06
2017-12-21T13:48:18.730Z,101514.36
2017-12-21T13:50:50.997Z,101512.23
2017-12-21T13:53:23.579Z,101514.34
2017-12-21T13:55:56.012Z,101508.15
2017-12-21T13:58:27.728Z,101520.00
2017-12-21T14:01:00.203Z,101512.75
2017-12-21T14:03:34.039Z,101509.74
2017-12-21T14:06:07.529Z,101513.40
2017-12-21T14:08:41.111Z,101509.66
2017-12-21T14:11:13.895Z,101511.94
2017-12-21T14:13:47.260Z,101517.34
2017-12-21T14:16:21.850Z,101511.19
2017-12-21T14:18:56.674Z,101510.34
2017-12-21T14:21:30.202Z,101512.75
2017-12-21T14:24:04.759Z,101510.77
2017-12-21T14:26:36.423Z,101514.34
2017-12-21T14:29:16.878Z,101506.59
2017-12-21T14:31:51.497Z,101505.21
2017-12-21T14:34:25.072Z,101506.86
2017-12-21T14:36:57.011Z,101514.42
2017-12-21T14:39:31.463Z,101518.41
2017-12-21T14:42:05.334Z,101516.11
2017-12-21T14:44:37.319Z,101517.03
2017-12-21T14:47:09.121Z,101516.81
2017-12-21T14:49:43.387Z,101517.34
2017-12-21T14:52:17.086Z,101516.39
2017-12-21T14:54:51.363Z,101519.45
2017-12-21T14:57:24.299Z,101519.13
2017-12-21T14:59:56.747Z,101517.98
2017-12-21T15:02:31.575Z,101514.69
2017-12-21T15:07:43.887Z,101516.22
2017-12-21T15:10:18.235Z,101517.91
2017-12-21T15:12:51.620Z,101517.56
2017-12-21T15:15:25.756Z,101518.69
2017-12-21T15:17:58.472Z,101524.47
2017-12-21T15:20:33.075Z,101524.05
2017-12-21T15:23:06.859Z,101521.94
2017-12-21T15:25:40.392Z,101515.63
2017-12-21T15:28:13.806Z,101517.22
2017-12-21T15:30:46.676Z,101518.50
2017-12-21T15:33:20.452Z,101523.30
2017-12-21T15:35:54.544Z,101526.03
2017-12-21T15:38:29.559Z,101536.32
2017-12-21T15:41:04.125Z,101527.63
2017-12-21T15:43:37.867Z,101521.21
2017-12-21T15:46:11.780Z,101529.91
2017-12-21T15:48:45.559Z,101533.17
2017-12-21T15:51:19.157Z,101539.88
2017-12-21T15:53:52.659Z,101546.19
2017-12-21T15:56:26.115Z,101554.23
2017-12-21T15:58:59.823Z,101551.94
2017-12-21T16:01:33.404Z,101551.01
2017-12-21T16:04:07.171Z,101565.58
2017-12-21T16:06:40.627Z,101574.48
2017-12-21T16:09:14.396Z,101587.09
2017-12-21T16:11:48.423Z,101586.57
2017-12-21T16:14:22.451Z,101584.35
2017-12-21T16:16:56.258Z,101585.00
2017-12-21T16:19:31.702Z,101582.55
2017-12-21T16:22:05.399Z,101597.66
2017-12-21T16:24:42.994Z,101580.25
2017-12-21T16:27:16.352Z,101581.64
2017-12-21T16:29:50.255Z,101578.26
2017-12-21T16:32:24.144Z,101584.78
2017-12-21T16:34:57.547Z,101575.43
2017-12-21T16:37:32.023Z,101584.88
2017-12-21T16:40:05.819Z,101591.91
2017-12-21T16:42:39.290Z,101594.20
2017-12-21T16:45:14.503Z,101595.98
2017-12-21T16:47:48.196Z,101601.11
2017-12-21T16:50:21.679Z,101601.77
2017-12-21T16:52:55.505Z,101603.64
2017-12-21T16:55:30.111Z,101601.33
2017-12-21T16:58:03.727Z,101603.03
2017-12-21T17:00:37.285Z,101610.47
2017-12-21T17:03:10.546Z,101608.91
2017-12-21T17:05:44.275Z,101616.25
2017-12-21T17:08:17.651Z,101624.19
2017-12-21T17:10:51.175Z,101622.53
2017-12-21T17:13:24.699Z,101626.84
2017-12-21T17:15:58.549Z,101633.44
2017-12-21T17:18:32.467Z,101638.38
2017-12-21T17:21:06.191Z,101628.29
2017-12-21T17:23:39.891Z,101630.41
2017-12-21T17:26:13.555Z,101633.86
2017-12-21T17:28:46.995Z,101636.81
2017-12-21T17:31:21.763Z,101642.98
2017-12-21T17:33:55.955Z,101643.70
2017-12-21T17:36:29.945Z,101634.91
2017-12-21T17:39:03.786Z,101639.00
2017-12-21T17:41:38.071Z,101641.39
2017-12-21T17:44:16.071Z,101639.70
2017-12-21T17:46:49.951Z,101633.98
2017-12-21T17:49:23.829Z,101636.59
2017-12-21T17:51:57.511Z,101642.05
2017-12-21T17:54:31.055Z,101644.34
2017-12-21T17:57:04.687Z,101642.14
2017-12-21T17:59:38.340Z,101641.11
2017-12-21T18:02:12.003Z,101642.36
2017-12-21T18:04:45.479Z,101637.95
2017-12-21T18:07:19.335Z,101641.20
2017-12-21T18:09:52.941Z,101632.92
2017-12-21T18:12:26.714Z,101635.97
2017-12-21T18:15:00.187Z,101634.70
2017-12-21T18:17:35.563Z,101640.78
2017-12-21T18:20:09.036Z,101640.78
2017-12-21T18:22:42.490Z,101643.93
2017-12-21T18:25:16.232Z,101643.70
2017-12-21T18:27:49.881Z,101639.75
2017-12-21T18:30:23.461Z,101645.82
2017-12-21T18:32:57.436Z,101647.27
2017-12-21T18:35:30.955Z,101649.58
2017-12-21T18:38:04.748Z,101662.28
2017-12-21T18:40:39.064Z,101662.17
2017-12-21T18:43:13.165Z,101666.46
2017-12-21T18:45:47.339Z,101678.53
2017-12-21T18:48:20.984Z,101687.23
2017-12-21T18:50:55.111Z,101688.83
2017-12-21T18:53:29.451Z,101681.69
2017-12-21T18:56:02.922Z,101674.22
2017-12-21T18:58:36.999Z,101672.33
2017-12-21T19:01:10.541Z,101674.23
2017-12-21T19:03:44.694Z,101671.84
2017-12-21T19:06:18.344Z,101676.68
2017-12-21T19:08:52.166Z,101681.80
2017-12-21T19:11:25.584Z,101680.64
2017-12-21T19:13:59.355Z,101679.15
2017-12-21T19:16:33.184Z,101679.89
2017-12-21T19:19:06.979Z,101674.45
2017-12-21T19:21:40.671Z,101676.03
2017-12-21T19:24:14.800Z,101669.73
2017-12-21T19:26:48.615Z,101674.13
2017-12-21T19:29:23.462Z,101675.72
2017-12-21T19:31:57.245Z,101683.58
2017-12-21T19:34:32.072Z,101677.70
2017-12-21T19:37:05.507Z,101675.82
2017-12-21T19:39:40.286Z,101677.83
2017-12-21T19:42:13.804Z,101675.62
2017-12-21T19:44:47.645Z,101676.05
2017-12-21T19:47:21.661Z,101680.88
2017-12-21T19:49:55.643Z,101675.73
2017-12-21T19:52:30.338Z,101683.19
2017-12-21T19:55:04.220Z,101680.56
2017-12-21T19:57:37.892Z,101686.34
2017-12-21T20:00:13.717Z,101687.92
2017-12-21T20:02:47.280Z,101694.74
2017-12-21T20:05:21.033Z,101698.28
2017-12-21T20:07:54.529Z,101697.05
2017-12-21T20:10:28.964Z,101689.38
2017-12-21T20:13:02.463Z,101695.78
2017-12-21T20:15:36.493Z,101693.57
2017-12-21T20:18:10.297Z,101693.98
2017-12-21T20:20:44.134Z,101693.69
2017-12-21T20:23:17.509Z,101693.37
2017-12-21T20:25:51.210Z,101690.13
2017-12-21T20:28:24.886Z,101694.64
2017-12-21T20:30:59.178Z,101697.03
2017-12-21T20:33:34.067Z,101696.19
2017-12-21T20:36:07.499Z,101699.56
2017-12-21T20:38:41.584Z,101696.19
2017-12-21T20:41:15.237Z,101706.69
2017-12-21T20:43:48.897Z,101699.14
2017-12-21T20:46:22.507Z,101702.19
2017-12-21T20:48:56.245Z,101706.78
2017-12-21T20:51:30.357Z,101706.16
2017-12-21T20:54:03.811Z,101704.70
2017-12-21T20:56:37.528Z,101699.55
2017-12-21T20:59:10.928Z,101706.78
2017-12-21T21:01:44.794Z,101697.25
2017-12-21T21:04:18.202Z,101706.64
2017-12-21T21:06:52.036Z,101713.17
2017-12-21T21:09:25.690Z,101713.68
2017-12-21T21:11:59.191Z,101708.42
2017-12-21T21:14:32.980Z,101700.45
2017-12-21T21:17:06.772Z,101702.78
2017-12-21T21:19:40.236Z,101695.42
2017-12-21T21:22:17.525Z,101695.03
2017-12-21T21:24:51.334Z,101694.70
2017-12-21T21:27:25.170Z,101687.37
2017-12-21T21:29:59.408Z,101688.22
2017-12-21T21:32:33.211Z,101686.95
2017-12-21T21:35:06.678Z,101689.67
2017-12-21T21:37:40.403Z,101685.89
2017-12-21T21:40:14.644Z,101683.59
2017-12-21T21:42:48.443Z,101675.31
2017-12-21T21:45:22.011Z,101685.17
2017-12-21T21:47:55.619Z,101683.59
2017-12-21T21:50:30.072Z,101682.74
2017-12-21T21:53:04.115Z,101683.05
2017-12-21T21:55:37.623Z,101692.40
2017-12-21T21:58:11.347Z,101691.13
2017-12-21T22:00:45.047Z,101697.11
2017-12-21T22:03:19.382Z,101688.42
2017-12-21T22:05:52.896Z,101692.50
2017-12-21T22:08:26.894Z,101684.42
2017-12-21T22:11:00.283Z,101686.86
2017-12-21T22:13:33.788Z,101690.52
2017-12-21T22:16:08.190Z,101688.31
2017-12-21T22:18:41.684Z,101699.22
2017-12-21T22:21:15.054Z,101700.57
2017-12-21T22:23:49.202Z,101702.55
2017-12-21T22:26:22.900Z,101704.03
2017-12-21T22:28:56.263Z,101702.56
2017-12-21T22:31:30.669Z,101705.50
2017-12-21T22:34:04.138Z,101700.86
2017-12-21T22:36:37.544Z,101700.66
2017-12-21T22:39:11.139Z,101693.84
2017-12-21T22:41:44.681Z,101695.73
2017-12-21T22:44:18.199Z,101687.56
2017-12-21T22:46:52.675Z,101695.31
2017-12-21T22:49:28.005Z,101693.66
2017-12-21T22:52:02.112Z,101693.75
2017-12-21T22:54:35.982Z,101699.62
2017-12-21T22:57:09.733Z,101694.50
2017-12-21T22:59:43.179Z,101692.82
2017-12-21T23:02:17.180Z,101690.20
2017-12-21T23:04:50.659Z,101693.02
2017-12-21T23:07:24.188Z,101691.22
2017-12-21T23:09:57.635Z,101692.30
2017-12-21T23:12:31.932Z,101691.03
2017-12-21T23:15:06.763Z,101699.41
2017-12-21T23:17:40.518Z,101693.95
2017-12-21T23:20:13.903Z,101683.06
2017-12-21T23:22:47.315Z,101684.94
2017-12-21T23:25:21.987Z,101683.06
2017-12-21T23:27:55.447Z,101678.16
2017-12-21T23:30:29.311Z,101672.69
2017-12-21T23:33:02.487Z,101663.05
2017-12-21T23:35:36.012Z,101665.36
2017-12-21T23:38:09.590Z,101663.58
2017-12-21T23:40:43.032Z,101661.27
2017-12-21T23:43:16.696Z,101659.28
2017-12-21T23:45:50.423Z,101657.73
2017-12-21T23:48:24.023Z,101655.95
2017-12-21T23:50:57.479Z,101650.80
2017-12-21T23:53:30.991Z,101649.66
2017-12-21T23:56:04.395Z,101647.45
2017-12-21T23:58:38.155Z,101646.09
